sensor_id;sensor_type;location;lat;lon;timestamp;temperature;humidity
10384;DHT22;5238;43.508;4.980;2022-11-11T00:02:13;16.50;91.30
10384;DHT22;5238;43.508;4.980;2022-11-11T00:04:56;16.50;91.30
10384;DHT22;5238;43.508;4.980;2022-11-11T00:07:25;16.50;91.30
10384;DHT22;5238;43.508;4.980;2022-11-11T00:09:53;16.50;91.30
10384;DHT22;5238;43.508;4.980;2022-11-11T00:12:23;16.40;91.30
10384;DHT22;5238;43.508;4.980;2022-11-11T00:14:51;16.40;91.30
10384;DHT22;5238;43.508;4.980;2022-11-11T00:17:20;16.40;91.30
10384;DHT22;5238;43.508;4.980;2022-11-11T00:20:09;16.40;91.30
10384;DHT22;5238;43.508;4.980;2022-11-11T00:22:56;16.40;91.30
10384;DHT22;5238;43.508;4.980;2022-11-11T00:25:43;16.40;91.30
10384;DHT22;5238;43.508;4.980;2022-11-11T00:28:21;16.40;91.30
10384;DHT22;5238;43.508;4.980;2022-11-11T00:31:06;16.40;91.30
10384;DHT22;5238;43.508;4.980;2022-11-11T00:33:51;16.40;91.30
10384;DHT22;5238;43.508;4.980;2022-11-11T00:36:35;16.40;91.30
10384;DHT22;5238;43.508;4.980;2022-11-11T00:39:01;16.40;91.30
10384;DHT22;5238;43.508;4.980;2022-11-11T00:41:30;16.40;91.30
10384;DHT22;5238;43.508;4.980;2022-11-11T00:44:06;16.40;91.30
10384;DHT22;5238;43.508;4.980;2022-11-11T00:46:53;16.40;91.30
10384;DHT22;5238;43.508;4.980;2022-11-11T00:49:38;16.30;91.30
10384;DHT22;5238;43.508;4.980;2022-11-11T00:52:27;16.30;91.30
10384;DHT22;5238;43.508;4.980;2022-11-11T00:55:01;16.30;91.30
10384;DHT22;5238;43.508;4.980;2022-11-11T00:57:29;16.30;91.30
10384;DHT22;5238;43.508;4.980;2022-11-11T00:59:56;16.30;91.30
10384;DHT22;5238;43.508;4.980;2022-11-11T01:02:23;16.30;91.30
10384;DHT22;5238;43.508;4.980;2022-11-11T01:04:53;16.20;91.30
10384;DHT22;5238;43.508;4.980;2022-11-11T01:07:20;16.20;91.30
10384;DHT22;5238;43.508;4.980;2022-11-11T01:09:51;16.20;91.30
10384;DHT22;5238;43.508;4.980;2022-11-11T01:12:18;16.20;91.30
10384;DHT22;5238;43.508;4.980;2022-11-11T01:14:46;16.20;91.30
10384;DHT22;5238;43.508;4.980;2022-11-11T01:17:15;16.20;91.30
10384;DHT22;5238;43.508;4.980;2022-11-11T01:19:45;16.20;91.30
10384;DHT22;5238;43.508;4.980;2022-11-11T01:22:32;16.20;91.30
10384;DHT22;5238;43.508;4.980;2022-11-11T01:25:16;16.20;91.30
10384;DHT22;5238;43.508;4.980;2022-11-11T01:27:53;16.20;91.30
10384;DHT22;5238;43.508;4.980;2022-11-11T01:30:20;16.20;91.30
10384;DHT22;5238;43.508;4.980;2022-11-11T01:32:47;16.20;91.30
10384;DHT22;5238;43.508;4.980;2022-11-11T01:35:23;16.20;91.30
10384;DHT22;5238;43.508;4.980;2022-11-11T01:37:53;16.20;91.30
10384;DHT22;5238;43.508;4.980;2022-11-11T01:43:52;16.20;91.30
10384;DHT22;5238;43.508;4.980;2022-11-11T01:46:27;16.20;91.30
10384;DHT22;5238;43.508;4.980;2022-11-11T01:49:13;16.20;91.30
10384;DHT22;5238;43.508;4.980;2022-11-11T01:52:01;16.20;91.30
10384;DHT22;5238;43.508;4.980;2022-11-11T01:54:38;16.20;91.30
10384;DHT22;5238;43.508;4.980;2022-11-11T01:57:16;16.20;91.30
10384;DHT22;5238;43.508;4.980;2022-11-11T01:59:51;16.10;91.30
10384;DHT22;5238;43.508;4.980;2022-11-11T02:08:52;16.10;91.30
10384;DHT22;5238;43.508;4.980;2022-11-11T02:11:21;16.10;91.30
10384;DHT22;5238;43.508;4.980;2022-11-11T02:14:24;16.10;91.30
10384;DHT22;5238;43.508;4.980;2022-11-11T02:17:12;16.10;91.30
10384;DHT22;5238;43.508;4.980;2022-11-11T02:19:59;16.10;91.30
10384;DHT22;5238;43.508;4.980;2022-11-11T02:22:50;16.00;91.30
10384;DHT22;5238;43.508;4.980;2022-11-11T02:25:41;16.00;91.30
10384;DHT22;5238;43.508;4.980;2022-11-11T02:28:31;15.90;91.30
10384;DHT22;5238;43.508;4.980;2022-11-11T02:31:02;15.90;91.30
10384;DHT22;5238;43.508;4.980;2022-11-11T02:33:53;15.90;91.30
10384;DHT22;5238;43.508;4.980;2022-11-11T02:36:22;15.90;91.30
10384;DHT22;5238;43.508;4.980;2022-11-11T02:38:49;15.90;91.30
10384;DHT22;5238;43.508;4.980;2022-11-11T02:42:05;15.90;91.30
10384;DHT22;5238;43.508;4.980;2022-11-11T02:45:07;15.80;91.30
10384;DHT22;5238;43.508;4.980;2022-11-11T02:47:38;15.80;91.30
10384;DHT22;5238;43.508;4.980;2022-11-11T02:53:17;15.80;91.30
10384;DHT22;5238;43.508;4.980;2022-11-11T02:56:04;15.70;91.30
10384;DHT22;5238;43.508;4.980;2022-11-11T03:02:00;15.70;91.30
10384;DHT22;5238;43.508;4.980;2022-11-11T03:04:30;15.70;91.30
10384;DHT22;5238;43.508;4.980;2022-11-11T03:07:00;15.70;91.30
10384;DHT22;5238;43.508;4.980;2022-11-11T03:09:27;15.70;91.30
10384;DHT22;5238;43.508;4.980;2022-11-11T03:12:00;15.70;91.30
10384;DHT22;5238;43.508;4.980;2022-11-11T03:14:29;15.70;91.30
10384;DHT22;5238;43.508;4.980;2022-11-11T03:17:00;15.70;91.30
10384;DHT22;5238;43.508;4.980;2022-11-11T03:19:48;15.70;91.30
10384;DHT22;5238;43.508;4.980;2022-11-11T03:22:31;15.70;91.30
10384;DHT22;5238;43.508;4.980;2022-11-11T03:25:03;15.70;91.30
10384;DHT22;5238;43.508;4.980;2022-11-11T03:27:48;15.70;91.30
10384;DHT22;5238;43.508;4.980;2022-11-11T03:30:17;15.70;91.30
10384;DHT22;5238;43.508;4.980;2022-11-11T03:32:44;15.70;91.30
10384;DHT22;5238;43.508;4.980;2022-11-11T03:35:14;15.70;91.30
10384;DHT22;5238;43.508;4.980;2022-11-11T03:37:45;15.70;91.30
10384;DHT22;5238;43.508;4.980;2022-11-11T03:40:37;15.70;91.30
10384;DHT22;5238;43.508;4.980;2022-11-11T03:43:09;15.70;91.30
10384;DHT22;5238;43.508;4.980;2022-11-11T03:45:39;15.70;91.30
10384;DHT22;5238;43.508;4.980;2022-11-11T03:48:09;15.70;91.30
10384;DHT22;5238;43.508;4.980;2022-11-11T03:51:00;15.70;91.30
10384;DHT22;5238;43.508;4.980;2022-11-11T03:53:27;15.70;91.30
10384;DHT22;5238;43.508;4.980;2022-11-11T03:55:58;15.70;91.30
10384;DHT22;5238;43.508;4.980;2022-11-11T03:58:41;15.70;91.30
10384;DHT22;5238;43.508;4.980;2022-11-11T04:01:13;15.70;91.30
10384;DHT22;5238;43.508;4.980;2022-11-11T04:03:56;15.70;91.30
10384;DHT22;5238;43.508;4.980;2022-11-11T04:06:48;15.70;91.30
10384;DHT22;5238;43.508;4.980;2022-11-11T04:09:34;15.70;91.30
10384;DHT22;5238;43.508;4.980;2022-11-11T04:12:36;15.70;91.30
10384;DHT22;5238;43.508;4.980;2022-11-11T04:15:19;15.70;91.30
10384;DHT22;5238;43.508;4.980;2022-11-11T04:18:07;15.60;91.30
10384;DHT22;5238;43.508;4.980;2022-11-11T04:20:34;15.60;91.30
10384;DHT22;5238;43.508;4.980;2022-11-11T04:23:20;15.60;91.30
10384;DHT22;5238;43.508;4.980;2022-11-11T04:26:01;15.60;91.30
10384;DHT22;5238;43.508;4.980;2022-11-11T04:28:28;15.60;91.30
10384;DHT22;5238;43.508;4.980;2022-11-11T04:31:21;15.60;91.30
10384;DHT22;5238;43.508;4.980;2022-11-11T04:34:06;15.60;91.30
10384;DHT22;5238;43.508;4.980;2022-11-11T04:36:42;15.70;91.30
10384;DHT22;5238;43.508;4.980;2022-11-11T04:39:10;15.70;91.30
10384;DHT22;5238;43.508;4.980;2022-11-11T04:42:00;15.70;91.30
10384;DHT22;5238;43.508;4.980;2022-11-11T04:44:28;15.70;91.30
10384;DHT22;5238;43.508;4.980;2022-11-11T04:47:14;15.60;91.30
10384;DHT22;5238;43.508;4.980;2022-11-11T04:49:45;15.60;91.30
10384;DHT22;5238;43.508;4.980;2022-11-11T04:52:13;15.60;91.30
10384;DHT22;5238;43.508;4.980;2022-11-11T04:54:54;15.60;91.30
10384;DHT22;5238;43.508;4.980;2022-11-11T04:57:44;15.60;91.30
10384;DHT22;5238;43.508;4.980;2022-11-11T05:00:30;15.60;91.30
10384;DHT22;5238;43.508;4.980;2022-11-11T05:02:58;15.60;91.30
10384;DHT22;5238;43.508;4.980;2022-11-11T05:05:50;15.60;91.30
10384;DHT22;5238;43.508;4.980;2022-11-11T05:08:43;15.60;91.30
10384;DHT22;5238;43.508;4.980;2022-11-11T05:11:25;15.50;91.30
10384;DHT22;5238;43.508;4.980;2022-11-11T05:13:58;15.50;91.30
10384;DHT22;5238;43.508;4.980;2022-11-11T05:16:47;15.40;91.30
10384;DHT22;5238;43.508;4.980;2022-11-11T05:19:32;15.40;91.30
10384;DHT22;5238;43.508;4.980;2022-11-11T05:22:21;15.40;91.30
10384;DHT22;5238;43.508;4.980;2022-11-11T05:24:49;15.30;91.30
10384;DHT22;5238;43.508;4.980;2022-11-11T05:27:36;15.30;91.30
10384;DHT22;5238;43.508;4.980;2022-11-11T05:30:04;15.30;91.30
10384;DHT22;5238;43.508;4.980;2022-11-11T05:32:33;15.20;91.30
10384;DHT22;5238;43.508;4.980;2022-11-11T05:35:01;15.20;91.30
10384;DHT22;5238;43.508;4.980;2022-11-11T05:37:29;15.20;91.30
10384;DHT22;5238;43.508;4.980;2022-11-11T05:40:07;15.20;91.30
10384;DHT22;5238;43.508;4.980;2022-11-11T05:42:41;15.10;91.30
10384;DHT22;5238;43.508;4.980;2022-11-11T05:45:09;15.10;91.30
10384;DHT22;5238;43.508;4.980;2022-11-11T05:47:38;15.10;91.30
10384;DHT22;5238;43.508;4.980;2022-11-11T05:50:07;15.00;91.30
10384;DHT22;5238;43.508;4.980;2022-11-11T05:52:38;15.00;91.30
10384;DHT22;5238;43.508;4.980;2022-11-11T05:55:06;15.00;91.30
10384;DHT22;5238;43.508;4.980;2022-11-11T05:57:36;15.00;91.30
10384;DHT22;5238;43.508;4.980;2022-11-11T06:00:37;15.00;91.30
10384;DHT22;5238;43.508;4.980;2022-11-11T06:03:10;15.00;91.30
10384;DHT22;5238;43.508;4.980;2022-11-11T06:05:39;15.00;91.30
10384;DHT22;5238;43.508;4.980;2022-11-11T06:08:09;15.00;91.30
10384;DHT22;5238;43.508;4.980;2022-11-11T06:10:39;15.00;91.30
10384;DHT22;5238;43.508;4.980;2022-11-11T06:13:08;15.00;91.30
10384;DHT22;5238;43.508;4.980;2022-11-11T06:15:56;15.00;91.30
10384;DHT22;5238;43.508;4.980;2022-11-11T06:18:25;15.00;91.30
10384;DHT22;5238;43.508;4.980;2022-11-11T06:21:07;14.90;91.30
10384;DHT22;5238;43.508;4.980;2022-11-11T06:23:59;15.00;91.30
10384;DHT22;5238;43.508;4.980;2022-11-11T06:39:57;15.10;91.30
10384;DHT22;5238;43.508;4.980;2022-11-11T06:42:24;15.10;91.30
10384;DHT22;5238;43.508;4.980;2022-11-11T06:44:55;15.10;91.30
10384;DHT22;5238;43.508;4.980;2022-11-11T06:47:38;15.10;91.30
10384;DHT22;5238;43.508;4.980;2022-11-11T06:50:06;15.10;91.30
10384;DHT22;5238;43.508;4.980;2022-11-11T06:52:33;15.20;91.30
10384;DHT22;5238;43.508;4.980;2022-11-11T06:55:03;15.20;91.30
10384;DHT22;5238;43.508;4.980;2022-11-11T06:57:31;15.20;91.30
10384;DHT22;5238;43.508;4.980;2022-11-11T07:00:12;15.20;91.30
10384;DHT22;5238;43.508;4.980;2022-11-11T07:02:41;15.20;91.30
10384;DHT22;5238;43.508;4.980;2022-11-11T07:05:10;15.20;91.30
10384;DHT22;5238;43.508;4.980;2022-11-11T07:07:51;15.30;91.30
10384;DHT22;5238;43.508;4.980;2022-11-11T07:10:21;15.40;91.30
10384;DHT22;5238;43.508;4.980;2022-11-11T07:19:21;15.90;91.30
10384;DHT22;5238;43.508;4.980;2022-11-11T07:21:48;16.10;91.30
10384;DHT22;5238;43.508;4.980;2022-11-11T07:24:23;16.30;91.30
10384;DHT22;5238;43.508;4.980;2022-11-11T07:26:53;16.50;91.30
10384;DHT22;5238;43.508;4.980;2022-11-11T07:29:31;16.70;91.30
10384;DHT22;5238;43.508;4.980;2022-11-11T07:31:58;16.90;91.30
10384;DHT22;5238;43.508;4.980;2022-11-11T07:34:34;17.10;91.30
10384;DHT22;5238;43.508;4.980;2022-11-11T07:37:22;17.40;91.30
10384;DHT22;5238;43.508;4.980;2022-11-11T07:43:38;17.90;91.30
10384;DHT22;5238;43.508;4.980;2022-11-11T07:46:42;18.10;91.30
10384;DHT22;5238;43.508;4.980;2022-11-11T07:49:22;18.40;91.30
10384;DHT22;5238;43.508;4.980;2022-11-11T07:55:32;18.90;91.30
10384;DHT22;5238;43.508;4.980;2022-11-11T07:58:42;19.10;91.30
10384;DHT22;5238;43.508;4.980;2022-11-11T08:04:25;19.50;91.30
10384;DHT22;5238;43.508;4.980;2022-11-11T08:07:01;19.60;91.30
10384;DHT22;5238;43.508;4.980;2022-11-11T08:12:54;19.90;91.30
10384;DHT22;5238;43.508;4.980;2022-11-11T08:15:40;20.00;91.30
10384;DHT22;5238;43.508;4.980;2022-11-11T08:25:10;20.40;91.30
10384;DHT22;5238;43.508;4.980;2022-11-11T08:31:58;21.00;91.30
10384;DHT22;5238;43.508;4.980;2022-11-11T08:34:25;21.20;91.30
10384;DHT22;5238;43.508;4.980;2022-11-11T08:36:55;21.30;91.30
10384;DHT22;5238;43.508;4.980;2022-11-11T08:39:22;21.50;91.30
10384;DHT22;5238;43.508;4.980;2022-11-11T08:41:54;21.60;91.30
10384;DHT22;5238;43.508;4.980;2022-11-11T08:44:21;21.70;91.30
10384;DHT22;5238;43.508;4.980;2022-11-11T08:46:49;21.80;91.30
10384;DHT22;5238;43.508;4.980;2022-11-11T08:49:29;21.90;91.30
10384;DHT22;5238;43.508;4.980;2022-11-11T08:52:04;22.00;91.30
10384;DHT22;5238;43.508;4.980;2022-11-11T08:54:49;22.30;91.30
10384;DHT22;5238;43.508;4.980;2022-11-11T09:00:36;22.70;91.30
10384;DHT22;5238;43.508;4.980;2022-11-11T09:03:09;22.90;91.30
10384;DHT22;5238;43.508;4.980;2022-11-11T09:05:54;23.10;91.30
10384;DHT22;5238;43.508;4.980;2022-11-11T09:15:20;23.60;91.30
10384;DHT22;5238;43.508;4.980;2022-11-11T09:17:50;23.60;91.30
10384;DHT22;5238;43.508;4.980;2022-11-11T09:20:17;23.70;91.30
10384;DHT22;5238;43.508;4.980;2022-11-11T09:22:51;23.70;91.30
10384;DHT22;5238;43.508;4.980;2022-11-11T09:25:21;23.70;91.30
10384;DHT22;5238;43.508;4.980;2022-11-11T09:27:56;23.70;91.30
10384;DHT22;5238;43.508;4.980;2022-11-11T09:30:42;23.80;91.30
10384;DHT22;5238;43.508;4.980;2022-11-11T09:33:27;24.00;91.30
10384;DHT22;5238;43.508;4.980;2022-11-11T09:35:56;24.00;91.30
10384;DHT22;5238;43.508;4.980;2022-11-11T09:38:28;24.10;91.30
10384;DHT22;5238;43.508;4.980;2022-11-11T09:41:03;24.30;91.30
10384;DHT22;5238;43.508;4.980;2022-11-11T09:44:01;24.50;91.30
10384;DHT22;5238;43.508;4.980;2022-11-11T09:46:37;24.60;91.30
10384;DHT22;5238;43.508;4.980;2022-11-11T09:49:36;24.80;91.30
10384;DHT22;5238;43.508;4.980;2022-11-11T09:52:11;24.90;91.30
10384;DHT22;5238;43.508;4.980;2022-11-11T09:54:44;25.00;91.30
10384;DHT22;5238;43.508;4.980;2022-11-11T09:57:28;25.10;91.30
10384;DHT22;5238;43.508;4.980;2022-11-11T10:00:02;25.20;91.30
10384;DHT22;5238;43.508;4.980;2022-11-11T10:02:37;25.20;91.30
10384;DHT22;5238;43.508;4.980;2022-11-11T10:05:18;25.30;91.30
10384;DHT22;5238;43.508;4.980;2022-11-11T10:31:26;25.80;91.30
10384;DHT22;5238;43.508;4.980;2022-11-11T10:34:10;25.80;91.30
10384;DHT22;5238;43.508;4.980;2022-11-11T10:37:16;25.70;91.30
10384;DHT22;5238;43.508;4.980;2022-11-11T10:56:05;25.00;91.30
10384;DHT22;5238;43.508;4.980;2022-11-11T10:58:40;24.80;91.30
10384;DHT22;5238;43.508;4.980;2022-11-11T11:01:24;24.70;91.30
10384;DHT22;5238;43.508;4.980;2022-11-11T11:04:32;24.60;91.30
10384;DHT22;5238;43.508;4.980;2022-11-11T11:07:20;24.50;91.30
10384;DHT22;5238;43.508;4.980;2022-11-11T11:09:54;24.40;91.30
10384;DHT22;5238;43.508;4.980;2022-11-11T11:12:40;24.40;91.30
10384;DHT22;5238;43.508;4.980;2022-11-11T11:15:16;24.30;91.30
10384;DHT22;5238;43.508;4.980;2022-11-11T11:17:54;24.20;91.30
10384;DHT22;5238;43.508;4.980;2022-11-11T11:20:35;24.20;91.30
10384;DHT22;5238;43.508;4.980;2022-11-11T11:23:03;24.10;91.30
10384;DHT22;5238;43.508;4.980;2022-11-11T11:25:51;24.10;91.30
10384;DHT22;5238;43.508;4.980;2022-11-11T11:28:56;24.00;91.30
10384;DHT22;5238;43.508;4.980;2022-11-11T11:31:43;24.00;91.30
10384;DHT22;5238;43.508;4.980;2022-11-11T11:34:16;23.90;91.30
10384;DHT22;5238;43.508;4.980;2022-11-11T11:36:59;23.90;91.30
10384;DHT22;5238;43.508;4.980;2022-11-11T11:39:34;23.90;91.30
10384;DHT22;5238;43.508;4.980;2022-11-11T11:42:04;23.90;91.30
10384;DHT22;5238;43.508;4.980;2022-11-11T11:44:36;23.90;91.30
10384;DHT22;5238;43.508;4.980;2022-11-11T11:47:18;23.90;91.30
10384;DHT22;5238;43.508;4.980;2022-11-11T11:50:28;24.00;91.30
10384;DHT22;5238;43.508;4.980;2022-11-11T11:53:06;23.90;91.30
10384;DHT22;5238;43.508;4.980;2022-11-11T11:55:39;23.90;91.30
10384;DHT22;5238;43.508;4.980;2022-11-11T11:58:26;23.90;91.30
10384;DHT22;5238;43.508;4.980;2022-11-11T12:01:06;23.90;91.30
10384;DHT22;5238;43.508;4.980;2022-11-11T12:04:00;23.80;91.30
10384;DHT22;5238;43.508;4.980;2022-11-11T12:06:49;23.80;91.30
10384;DHT22;5238;43.508;4.980;2022-11-11T12:09:30;23.80;91.30
10384;DHT22;5238;43.508;4.980;2022-11-11T12:12:15;23.80;91.30
10384;DHT22;5238;43.508;4.980;2022-11-11T12:15:09;23.70;91.30
10384;DHT22;5238;43.508;4.980;2022-11-11T12:20:50;23.80;91.30
10384;DHT22;5238;43.508;4.980;2022-11-11T12:23:50;23.70;91.30
10384;DHT22;5238;43.508;4.980;2022-11-11T12:26:37;23.70;91.30
10384;DHT22;5238;43.508;4.980;2022-11-11T12:29:23;23.70;91.30
10384;DHT22;5238;43.508;4.980;2022-11-11T12:32:06;23.60;91.30
10384;DHT22;5238;43.508;4.980;2022-11-11T12:37:54;23.60;91.30
10384;DHT22;5238;43.508;4.980;2022-11-11T12:40:34;23.60;91.30
10384;DHT22;5238;43.508;4.980;2022-11-11T12:43:11;23.60;91.30
10384;DHT22;5238;43.508;4.980;2022-11-11T12:46:00;23.60;91.30
10384;DHT22;5238;43.508;4.980;2022-11-11T12:48:41;23.60;91.30
10384;DHT22;5238;43.508;4.980;2022-11-11T12:51:25;23.60;91.30
10384;DHT22;5238;43.508;4.980;2022-11-11T12:54:27;23.60;91.30
10384;DHT22;5238;43.508;4.980;2022-11-11T12:57:18;23.60;91.30
10384;DHT22;5238;43.508;4.980;2022-11-11T13:00:26;23.60;91.30
10384;DHT22;5238;43.508;4.980;2022-11-11T13:03:21;23.60;91.30
10384;DHT22;5238;43.508;4.980;2022-11-11T13:06:12;23.60;91.30
10384;DHT22;5238;43.508;4.980;2022-11-11T13:09:07;23.60;91.30
10384;DHT22;5238;43.508;4.980;2022-11-11T13:11:50;23.60;91.30
10384;DHT22;5238;43.508;4.980;2022-11-11T13:14:45;23.60;91.30
10384;DHT22;5238;43.508;4.980;2022-11-11T13:17:15;23.60;91.30
10384;DHT22;5238;43.508;4.980;2022-11-11T13:20:02;23.60;91.30
10384;DHT22;5238;43.508;4.980;2022-11-11T13:22:30;23.60;91.30
10384;DHT22;5238;43.508;4.980;2022-11-11T13:25:13;23.60;91.30
10384;DHT22;5238;43.508;4.980;2022-11-11T13:27:54;23.50;91.30
10384;DHT22;5238;43.508;4.980;2022-11-11T13:30:49;23.50;91.30
10384;DHT22;5238;43.508;4.980;2022-11-11T13:33:21;23.50;91.30
10384;DHT22;5238;43.508;4.980;2022-11-11T13:35:53;23.50;91.30
10384;DHT22;5238;43.508;4.980;2022-11-11T13:38:27;23.50;91.30
10384;DHT22;5238;43.508;4.980;2022-11-11T13:41:22;23.40;91.30
10384;DHT22;5238;43.508;4.980;2022-11-11T13:44:18;23.40;91.30
10384;DHT22;5238;43.508;4.980;2022-11-11T13:47:10;23.40;91.30
10384;DHT22;5238;43.508;4.980;2022-11-11T13:49:45;23.40;91.30
10384;DHT22;5238;43.508;4.980;2022-11-11T13:52:30;23.40;91.30
10384;DHT22;5238;43.508;4.980;2022-11-11T13:55:23;23.40;91.30
10384;DHT22;5238;43.508;4.980;2022-11-11T13:58:25;23.40;91.30
10384;DHT22;5238;43.508;4.980;2022-11-11T14:04:23;23.40;91.30
10384;DHT22;5238;43.508;4.980;2022-11-11T14:06:52;23.40;91.30
10384;DHT22;5238;43.508;4.980;2022-11-11T14:09:52;23.40;91.30
10384;DHT22;5238;43.508;4.980;2022-11-11T14:12:32;23.30;91.30
10384;DHT22;5238;43.508;4.980;2022-11-11T14:15:01;23.30;91.30
10384;DHT22;5238;43.508;4.980;2022-11-11T14:17:42;23.30;91.30
10384;DHT22;5238;43.508;4.980;2022-11-11T14:20:37;23.20;91.30
10384;DHT22;5238;43.508;4.980;2022-11-11T14:23:31;23.20;91.30
10384;DHT22;5238;43.508;4.980;2022-11-11T14:26:24;23.20;91.30
10384;DHT22;5238;43.508;4.980;2022-11-11T14:28:59;23.20;91.30
10384;DHT22;5238;43.508;4.980;2022-11-11T14:40:39;23.00;91.30
10384;DHT22;5238;43.508;4.980;2022-11-11T14:43:36;22.90;91.30
10384;DHT22;5238;43.508;4.980;2022-11-11T14:46:28;22.90;91.30
10384;DHT22;5238;43.508;4.980;2022-11-11T14:52:33;22.80;91.30
10384;DHT22;5238;43.508;4.980;2022-11-11T14:55:13;22.80;91.30
10384;DHT22;5238;43.508;4.980;2022-11-11T14:57:47;22.70;91.30
10384;DHT22;5238;43.508;4.980;2022-11-11T15:00:27;22.60;91.30
10384;DHT22;5238;43.508;4.980;2022-11-11T15:03:00;22.60;91.30
10384;DHT22;5238;43.508;4.980;2022-11-11T15:05:58;22.60;91.30
10384;DHT22;5238;43.508;4.980;2022-11-11T15:08:45;22.50;91.30
10384;DHT22;5238;43.508;4.980;2022-11-11T15:11:34;22.50;91.30
10384;DHT22;5238;43.508;4.980;2022-11-11T15:21:36;22.40;91.30
10384;DHT22;5238;43.508;4.980;2022-11-11T15:24:56;22.30;91.30
10384;DHT22;5238;43.508;4.980;2022-11-11T15:31:38;22.20;91.30
10384;DHT22;5238;43.508;4.980;2022-11-11T15:38:13;22.20;91.30
10384;DHT22;5238;43.508;4.980;2022-11-11T15:40:52;22.10;91.30
10384;DHT22;5238;43.508;4.980;2022-11-11T15:43:38;22.10;91.30
10384;DHT22;5238;43.508;4.980;2022-11-11T15:46:37;22.00;91.30
10384;DHT22;5238;43.508;4.980;2022-11-11T16:02:39;22.00;91.30
10384;DHT22;5238;43.508;4.980;2022-11-11T16:09:00;22.00;91.30
10384;DHT22;5238;43.508;4.980;2022-11-11T16:22:44;21.90;91.30
10384;DHT22;5238;43.508;4.980;2022-11-11T16:29:02;21.90;91.30
10384;DHT22;5238;43.508;4.980;2022-11-11T16:35:25;21.90;91.30
10384;DHT22;5238;43.508;4.980;2022-11-11T16:38:16;21.80;91.30
10384;DHT22;5238;43.508;4.980;2022-11-11T16:40:56;21.80;91.30
10384;DHT22;5238;43.508;4.980;2022-11-11T16:43:40;21.70;91.30
10384;DHT22;5238;43.508;4.980;2022-11-11T16:46:13;21.60;91.30
10384;DHT22;5238;43.508;4.980;2022-11-11T16:48:49;21.50;91.30
10384;DHT22;5238;43.508;4.980;2022-11-11T16:51:21;21.40;91.30
10384;DHT22;5238;43.508;4.980;2022-11-11T16:54:05;21.30;91.30
10384;DHT22;5238;43.508;4.980;2022-11-11T16:56:46;21.20;91.30
10384;DHT22;5238;43.508;4.980;2022-11-11T16:59:19;21.00;91.30
10384;DHT22;5238;43.508;4.980;2022-11-11T17:01:48;20.90;91.30
10384;DHT22;5238;43.508;4.980;2022-11-11T17:04:23;20.80;91.30
10384;DHT22;5238;43.508;4.980;2022-11-11T17:07:30;20.70;91.30
10384;DHT22;5238;43.508;4.980;2022-11-11T17:10:16;20.60;91.30
10384;DHT22;5238;43.508;4.980;2022-11-11T17:12:47;20.50;91.30
10384;DHT22;5238;43.508;4.980;2022-11-11T17:15:18;20.40;91.30
10384;DHT22;5238;43.508;4.980;2022-11-11T17:17:53;20.30;91.30
10384;DHT22;5238;43.508;4.980;2022-11-11T17:20:22;20.30;91.30
10384;DHT22;5238;43.508;4.980;2022-11-11T17:22:51;20.20;91.30
10384;DHT22;5238;43.508;4.980;2022-11-11T17:25:27;20.10;91.30
10384;DHT22;5238;43.508;4.980;2022-11-11T17:28:02;20.00;91.30
10384;DHT22;5238;43.508;4.980;2022-11-11T17:30:37;20.00;91.30
10384;DHT22;5238;43.508;4.980;2022-11-11T17:33:04;19.90;91.30
10384;DHT22;5238;43.508;4.980;2022-11-11T17:35:34;19.80;91.30
10384;DHT22;5238;43.508;4.980;2022-11-11T17:38:04;19.80;91.30
10384;DHT22;5238;43.508;4.980;2022-11-11T17:40:35;19.70;91.30
10384;DHT22;5238;43.508;4.980;2022-11-11T17:43:03;19.70;91.30
10384;DHT22;5238;43.508;4.980;2022-11-11T17:45:30;19.60;91.30
10384;DHT22;5238;43.508;4.980;2022-11-11T17:47:57;19.50;91.30
10384;DHT22;5238;43.508;4.980;2022-11-11T17:50:29;19.50;91.30
10384;DHT22;5238;43.508;4.980;2022-11-11T17:52:56;19.40;91.30
10384;DHT22;5238;43.508;4.980;2022-11-11T17:55:24;19.40;91.30
10384;DHT22;5238;43.508;4.980;2022-11-11T17:57:53;19.40;91.30
10384;DHT22;5238;43.508;4.980;2022-11-11T18:00:22;19.30;91.30
10384;DHT22;5238;43.508;4.980;2022-11-11T18:02:51;19.30;91.30
10384;DHT22;5238;43.508;4.980;2022-11-11T18:05:18;19.30;91.30
10384;DHT22;5238;43.508;4.980;2022-11-11T18:07:47;19.20;91.30
10384;DHT22;5238;43.508;4.980;2022-11-11T18:10:18;19.20;91.30
10384;DHT22;5238;43.508;4.980;2022-11-11T18:12:47;19.10;91.30
10384;DHT22;5238;43.508;4.980;2022-11-11T18:15:18;19.10;91.30
10384;DHT22;5238;43.508;4.980;2022-11-11T18:17:46;19.10;91.30
10384;DHT22;5238;43.508;4.980;2022-11-11T18:20:15;19.00;91.30
10384;DHT22;5238;43.508;4.980;2022-11-11T18:23:00;19.00;91.30
10384;DHT22;5238;43.508;4.980;2022-11-11T18:25:34;18.90;91.30
10384;DHT22;5238;43.508;4.980;2022-11-11T18:28:01;18.90;91.30
10384;DHT22;5238;43.508;4.980;2022-11-11T18:30:32;18.90;91.30
10384;DHT22;5238;43.508;4.980;2022-11-11T18:32:59;18.80;91.30
10384;DHT22;5238;43.508;4.980;2022-11-11T18:35:26;18.80;91.30
10384;DHT22;5238;43.508;4.980;2022-11-11T18:37:54;18.70;91.30
10384;DHT22;5238;43.508;4.980;2022-11-11T18:40:24;18.70;91.30
10384;DHT22;5238;43.508;4.980;2022-11-11T18:42:58;18.70;91.30
10384;DHT22;5238;43.508;4.980;2022-11-11T18:45:27;18.60;91.30
10384;DHT22;5238;43.508;4.980;2022-11-11T18:48:03;18.60;91.30
10384;DHT22;5238;43.508;4.980;2022-11-11T18:50:39;18.60;91.30
10384;DHT22;5238;43.508;4.980;2022-11-11T18:53:07;18.50;91.30
10384;DHT22;5238;43.508;4.980;2022-11-11T18:55:35;18.50;91.30
10384;DHT22;5238;43.508;4.980;2022-11-11T18:58:04;18.40;91.30
10384;DHT22;5238;43.508;4.980;2022-11-11T19:00:31;18.40;91.30
10384;DHT22;5238;43.508;4.980;2022-11-11T19:03:00;18.40;91.30
10384;DHT22;5238;43.508;4.980;2022-11-11T19:05:27;18.40;91.30
10384;DHT22;5238;43.508;4.980;2022-11-11T19:07:55;18.30;91.30
10384;DHT22;5238;43.508;4.980;2022-11-11T19:10:22;18.30;91.30
10384;DHT22;5238;43.508;4.980;2022-11-11T19:12:54;18.20;91.30
10384;DHT22;5238;43.508;4.980;2022-11-11T19:15:21;18.20;91.30
10384;DHT22;5238;43.508;4.980;2022-11-11T19:17:53;18.20;91.30
10384;DHT22;5238;43.508;4.980;2022-11-11T19:20:25;18.10;91.30
10384;DHT22;5238;43.508;4.980;2022-11-11T19:22:52;18.10;91.30
10384;DHT22;5238;43.508;4.980;2022-11-11T19:25:19;18.00;91.30
10384;DHT22;5238;43.508;4.980;2022-11-11T19:27:46;18.00;91.30
10384;DHT22;5238;43.508;4.980;2022-11-11T19:30:18;18.00;91.30
10384;DHT22;5238;43.508;4.980;2022-11-11T19:32:47;18.00;91.30
10384;DHT22;5238;43.508;4.980;2022-11-11T19:35:19;17.90;91.30
10384;DHT22;5238;43.508;4.980;2022-11-11T19:37:51;17.90;91.30
10384;DHT22;5238;43.508;4.980;2022-11-11T19:40:21;17.80;91.30
10384;DHT22;5238;43.508;4.980;2022-11-11T19:42:54;17.80;91.30
10384;DHT22;5238;43.508;4.980;2022-11-11T19:45:28;17.80;91.30
10384;DHT22;5238;43.508;4.980;2022-11-11T19:47:55;17.70;91.30
10384;DHT22;5238;43.508;4.980;2022-11-11T19:50:24;17.70;91.30
10384;DHT22;5238;43.508;4.980;2022-11-11T19:52:53;17.70;91.30
10384;DHT22;5238;43.508;4.980;2022-11-11T19:55:20;17.60;91.30
10384;DHT22;5238;43.508;4.980;2022-11-11T19:57:56;17.60;91.30